Time;durP1;ratioP1;P1;durP2;ratioP2;P2;SDS_P1;SDS_P2;PMS_P1;PMS_P2;Temp;Humidity;BMP_temperature;BMP_pressure;BME280_temperature;BME280_humidity;BME280_pressure;Samples;Min_cycle;Max_cycle;Signal;HPM_P1;HPM_P2
2022/10/30 00:01:39;;;;;;;10.73;4.97;;;16.30;99.90;;;;;;10457878;28;20044;-63
2022/10/30 00:06:39;;;;;;;7.10;4.53;;;16.30;99.90;;;;;;10456339;28;20021;-62
2022/10/30 00:11:40;;;;;;;8.98;5.03;;;16.30;99.90;;;;;;10456939;28;20865;-63
2022/10/30 00:16:41;;;;;;;10.32;4.93;;;16.30;99.90;;;;;;10458084;28;20070;-63
2022/10/30 00:21:42;;;;;;;7.65;5.25;;;16.30;99.90;;;;;;10458562;28;20067;-62
2022/10/30 00:26:42;;;;;;;9.38;5.18;;;16.30;99.90;;;;;;10458438;28;20048;-63
2022/10/30 00:31:43;;;;;;;7.35;5.00;;;16.20;99.90;;;;;;10459622;28;20509;-63
2022/10/30 00:36:44;;;;;;;9.98;4.65;;;16.20;99.90;;;;;;10454179;28;20481;-63
2022/10/30 00:41:44;;;;;;;10.60;5.10;;;16.20;99.90;;;;;;10460602;28;20029;-64
2022/10/30 00:46:45;;;;;;;10.55;5.07;;;16.20;99.90;;;;;;10461008;28;20082;-63
2022/10/30 00:51:51;;;;;;;8.20;5.10;;;16.20;99.90;;;;;;10456087;28;20489;-63
2022/10/30 00:56:53;;;;;;;8.82;4.93;;;16.20;99.90;;;;;;10452070;28;20405;-63
2022/10/30 01:01:54;;;;;;;9.90;5.18;;;16.20;99.90;;;;;;10455215;28;20036;-63
2022/10/30 01:06:55;;;;;;;10.32;5.07;;;16.20;99.90;;;;;;10455141;28;20155;-63
2022/10/30 01:11:57;;;;;;;9.50;5.30;;;16.20;99.90;;;;;;10456084;28;20020;-64
2022/10/30 01:17:09;;;;;;;10.77;5.15;;;16.10;99.90;;;;;;10457155;28;20161;-64
2022/10/30 01:22:40;;;;;;;7.63;4.47;;;16.10;99.90;;;;;;10452147;28;20044;-63
2022/10/30 01:28:00;;;;;;;11.40;5.05;;;16.10;99.90;;;;;;10452851;28;20090;-65
2022/10/30 01:33:25;;;;;;;11.23;6.18;;;16.10;99.90;;;;;;10454000;28;20037;-63
2022/10/30 01:38:32;;;;;;;8.73;4.88;;;16.10;99.90;;;;;;10456668;28;20044;-63
2022/10/30 01:43:34;;;;;;;9.88;5.15;;;16.10;99.90;;;;;;10456780;28;20036;-63
2022/10/30 01:48:47;;;;;;;12.52;5.00;;;16.00;99.90;;;;;;10454482;28;20040;-63
2022/10/30 01:53:52;;;;;;;10.77;4.93;;;16.00;99.90;;;;;;10453273;28;20584;-63
2022/10/30 01:59:11;;;;;;;8.30;4.93;;;16.10;99.90;;;;;;10452089;28;20029;-63
2022/10/30 02:04:13;;;;;;;9.52;4.97;;;16.00;99.90;;;;;;10455143;28;20077;-63
2022/10/30 02:09:16;;;;;;;9.45;4.80;;;16.00;99.90;;;;;;10456712;28;20024;-63
2022/10/30 02:14:28;;;;;;;10.65;5.28;;;16.00;99.90;;;;;;10452364;28;20030;-64
2022/10/30 02:19:29;;;;;;;9.52;4.93;;;16.00;99.90;;;;;;10453597;28;20473;-62
2022/10/30 02:24:32;;;;;;;8.63;4.60;;;16.00;99.90;;;;;;10454379;28;20049;-63
2022/10/30 02:29:32;;;;;;;8.23;4.38;;;16.00;99.90;;;;;;10452873;28;20389;-63
2022/10/30 02:34:33;;;;;;;10.00;4.75;;;16.00;99.90;;;;;;10456000;28;20036;-63
2022/10/30 02:39:34;;;;;;;9.05;5.10;;;15.90;99.90;;;;;;10457648;28;20140;-63
2022/10/30 02:44:34;;;;;;;10.77;4.88;;;15.90;99.90;;;;;;10461673;28;20028;-63
2022/10/30 02:49:35;;;;;;;10.30;5.50;;;15.90;99.90;;;;;;10459213;28;20021;-63
2022/10/30 02:54:36;;;;;;;9.23;5.30;;;15.90;99.90;;;;;;10458632;28;20089;-63
2022/10/30 02:59:37;;;;;;;8.88;5.35;;;15.90;99.90;;;;;;10460593;28;20093;-64
2022/10/30 03:04:37;;;;;;;8.75;5.00;;;15.90;99.90;;;;;;10452561;28;20801;-63
2022/10/30 03:09:38;;;;;;;7.68;4.55;;;15.80;99.90;;;;;;10458644;28;20024;-63
2022/10/30 03:14:39;;;;;;;8.90;5.60;;;15.80;99.90;;;;;;10454501;28;20021;-63
2022/10/30 03:19:39;;;;;;;8.05;5.28;;;15.80;99.90;;;;;;10460236;28;20115;-63
2022/10/30 03:24:40;;;;;;;12.07;5.20;;;15.80;99.90;;;;;;10454728;28;20032;-62
2022/10/30 03:29:41;;;;;;;8.43;4.60;;;15.80;99.90;;;;;;10459600;28;20037;-63
2022/10/30 03:34:42;;;;;;;7.18;4.75;;;15.80;99.90;;;;;;10457234;28;20024;-63
2022/10/30 03:39:42;;;;;;;8.00;4.35;;;15.80;99.90;;;;;;10458291;28;20044;-63
2022/10/30 03:44:43;;;;;;;10.85;5.18;;;15.80;99.90;;;;;;10459905;28;20016;-63
2022/10/30 03:49:44;;;;;;;8.32;4.65;;;15.80;99.90;;;;;;10458051;28;20494;-63
2022/10/30 03:54:44;;;;;;;8.05;4.68;;;15.80;99.90;;;;;;10460637;28;20028;-64
2022/10/30 03:59:45;;;;;;;9.73;4.63;;;15.70;99.90;;;;;;10458537;28;20127;-62
2022/10/30 04:04:46;;;;;;;8.63;4.97;;;15.70;99.90;;;;;;10456618;28;20560;-63
2022/10/30 04:09:46;;;;;;;10.38;4.93;;;15.70;99.90;;;;;;10457620;28;20028;-63
2022/10/30 04:14:47;;;;;;;8.32;4.78;;;15.70;99.90;;;;;;10461593;28;20479;-63
2022/10/30 04:19:48;;;;;;;11.98;5.72;;;15.70;99.90;;;;;;10454971;28;20127;-63
2022/10/30 04:24:50;;;;;;;9.38;5.43;;;15.70;99.90;;;;;;10457170;28;20045;-63
2022/10/30 04:29:51;;;;;;;11.40;5.63;;;15.70;99.90;;;;;;10460975;28;20028;-63
2022/10/30 04:34:52;;;;;;;9.18;5.47;;;15.70;99.90;;;;;;10459688;28;20036;-64
2022/10/30 04:39:53;;;;;;;8.98;5.72;;;15.70;99.90;;;;;;10457247;28;20032;-62
2022/10/30 04:44:53;;;;;;;9.65;5.30;;;15.60;99.90;;;;;;10455990;28;20645;-63
2022/10/30 04:49:54;;;;;;;13.40;4.72;;;15.60;99.90;;;;;;10454584;28;20028;-63
2022/10/30 04:54:55;;;;;;;11.05;5.38;;;15.60;99.90;;;;;;10452785;28;20028;-64
2022/10/30 04:59:56;;;;;;;7.35;4.70;;;15.60;99.90;;;;;;10456890;28;20040;-64
2022/10/30 05:04:56;;;;;;;9.98;5.00;;;15.60;99.90;;;;;;10457817;28;20143;-64
2022/10/30 05:09:57;;;;;;;7.55;4.75;;;15.70;99.90;;;;;;10457551;28;20035;-64
2022/10/30 05:14:58;;;;;;;10.77;5.32;;;15.60;99.90;;;;;;10455230;28;20028;-63
2022/10/30 05:19:59;;;;;;;8.65;5.03;;;15.60;99.90;;;;;;10455607;28;20037;-63
2022/10/30 05:24:59;;;;;;;8.30;5.18;;;15.50;99.90;;;;;;10456165;28;20045;-64
2022/10/30 05:30:00;;;;;;;7.70;4.95;;;15.50;99.90;;;;;;10453255;28;20032;-63
2022/10/30 05:35:01;;;;;;;8.52;5.15;;;15.50;99.90;;;;;;10472880;28;20016;-63
2022/10/30 05:40:02;;;;;;;9.10;5.22;;;15.50;99.90;;;;;;10455598;28;20374;-63
2022/10/30 05:45:03;;;;;;;11.65;5.57;;;15.50;99.90;;;;;;10454168;28;20025;-63
2022/10/30 05:50:05;;;;;;;9.02;5.43;;;15.40;99.90;;;;;;10452055;28;20040;-63
2022/10/30 05:55:05;;;;;;;9.73;5.50;;;15.50;99.90;;;;;;10452823;28;20107;-63
2022/10/30 06:00:07;;;;;;;7.30;4.95;;;15.40;99.90;;;;;;10455176;28;20654;-63
2022/10/30 06:05:08;;;;;;;9.07;5.32;;;15.40;99.90;;;;;;10436336;28;20123;-63
2022/10/30 06:10:09;;;;;;;9.20;5.65;;;15.40;99.90;;;;;;10446394;28;20481;-63
2022/10/30 06:15:09;;;;;;;10.00;5.43;;;15.40;99.90;;;;;;10453393;28;20021;-63
2022/10/30 06:20:10;;;;;;;9.02;4.78;;;15.40;99.90;;;;;;10451502;28;20041;-64
2022/10/30 06:25:11;;;;;;;10.85;5.97;;;15.40;99.90;;;;;;10452472;28;20069;-63
2022/10/30 06:30:12;;;;;;;10.90;5.50;;;15.40;99.90;;;;;;10453445;28;20029;-62
2022/10/30 06:35:13;;;;;;;9.68;5.90;;;15.40;99.90;;;;;;10452330;28;20044;-63
2022/10/30 06:40:15;;;;;;;11.25;5.43;;;15.30;99.90;;;;;;10454988;28;20036;-63
2022/10/30 06:45:18;;;;;;;9.15;5.47;;;15.40;99.90;;;;;;10431192;28;20100;-62
2022/10/30 06:50:20;;;;;;;9.52;4.68;;;15.40;99.90;;;;;;10357303;28;20423;-63
2022/10/30 06:55:21;;;;;;;9.38;5.20;;;15.30;99.90;;;;;;10375452;28;20847;-63
2022/10/30 07:00:22;;;;;;;16.27;5.50;;;15.30;99.90;;;;;;10365750;28;20159;-63
2022/10/30 07:05:23;;;;;;;10.57;5.45;;;15.30;99.90;;;;;;10368980;28;20669;-63
2022/10/30 07:10:24;;;;;;;8.80;5.65;;;15.30;99.90;;;;;;10370370;28;20029;-63
2022/10/30 07:15:25;;;;;;;10.50;5.10;;;15.30;99.90;;;;;;10370872;28;20338;-63
2022/10/30 07:20:28;;;;;;;11.85;5.90;;;15.30;99.90;;;;;;10367258;28;20040;-63
2022/10/30 07:25:29;;;;;;;9.95;5.25;;;15.30;99.90;;;;;;10371557;28;20037;-63
2022/10/30 07:30:30;;;;;;;8.80;4.88;;;15.30;99.90;;;;;;10373136;28;20237;-62
2022/10/30 07:35:32;;;;;;;9.63;5.13;;;15.30;99.90;;;;;;10369485;28;20036;-64
2022/10/30 07:40:33;;;;;;;10.27;5.43;;;15.30;99.90;;;;;;10370402;28;20041;-63
2022/10/30 07:45:34;;;;;;;10.25;5.45;;;15.30;99.90;;;;;;10371787;28;20028;-62
2022/10/30 07:50:34;;;;;;;10.38;5.50;;;15.30;99.90;;;;;;10369829;28;20028;-63
2022/10/30 07:55:35;;;;;;;10.38;5.60;;;15.40;99.90;;;;;;10368397;28;20560;-63
2022/10/30 08:00:36;;;;;;;9.82;5.25;;;15.40;99.90;;;;;;10370458;28;20099;-63
2022/10/30 08:05:36;;;;;;;10.50;5.72;;;15.40;99.90;;;;;;10371183;28;20032;-63
2022/10/30 08:10:37;;;;;;;10.25;6.10;;;15.40;99.90;;;;;;10372650;28;20287;-62
2022/10/30 08:15:38;;;;;;;8.98;5.57;;;15.50;99.90;;;;;;10370461;28;20040;-63
2022/10/30 08:20:39;;;;;;;9.30;5.57;;;15.50;99.90;;;;;;10367267;28;20343;-63
2022/10/30 08:25:39;;;;;;;12.88;6.13;;;15.60;99.90;;;;;;10367371;28;20417;-63
2022/10/30 08:30:40;;;;;;;11.43;6.05;;;15.70;99.90;;;;;;10366755;28;20134;-63
2022/10/30 08:35:52;;;;;;;9.65;5.22;;;15.70;99.90;;;;;;10371126;28;20029;-63
2022/10/30 08:40:53;;;;;;;9.88;5.68;;;15.80;99.90;;;;;;10366007;28;20036;-63
2022/10/30 08:45:57;;;;;;;9.50;5.38;;;15.90;99.90;;;;;;10361659;28;20025;-63
2022/10/30 08:51:00;;;;;;;11.65;5.68;;;16.00;99.90;;;;;;10365068;28;20021;-63
2022/10/30 08:56:00;;;;;;;11.90;5.88;;;16.10;99.90;;;;;;10359256;28;20329;-67
2022/10/30 09:01:02;;;;;;;9.85;5.55;;;16.10;99.90;;;;;;10362088;28;20036;-64
2022/10/30 09:06:02;;;;;;;10.20;6.03;;;16.40;99.90;;;;;;10365802;28;20044;-62
2022/10/30 09:11:03;;;;;;;10.10;5.72;;;16.20;99.90;;;;;;10361293;28;20160;-64
2022/10/30 09:16:04;;;;;;;9.43;6.10;;;16.20;99.90;;;;;;10363851;28;20530;-65
2022/10/30 09:21:05;;;;;;;10.48;5.03;;;16.30;99.90;;;;;;10363719;28;20082;-63
2022/10/30 09:26:06;;;;;;;10.55;5.28;;;16.30;99.90;;;;;;10370997;28;20586;-64
2022/10/30 09:31:06;;;;;;;8.95;5.53;;;16.30;99.90;;;;;;10365515;28;20029;-63
2022/10/30 09:36:07;;;;;;;11.38;5.65;;;16.30;99.90;;;;;;10369105;28;21072;-64
2022/10/30 09:41:23;;;;;;;9.50;5.70;;;16.40;99.90;;;;;;10353512;28;20037;-63
2022/10/30 09:46:33;;;;;;;12.65;5.63;;;16.40;99.90;;;;;;10351085;28;20501;-63
2022/10/30 09:51:33;;;;;;;13.05;6.97;;;16.40;99.90;;;;;;10356359;28;20490;-63
2022/10/30 09:56:59;;;;;;;10.50;5.78;;;16.40;99.90;;;;;;10357162;28;20045;-63
2022/10/30 10:02:23;;;;;;;9.93;6.30;;;16.40;99.90;;;;;;10351688;28;20044;-62
2022/10/30 10:07:37;;;;;;;12.73;7.05;;;16.50;99.90;;;;;;10351288;28;20549;-64
2022/10/30 10:12:44;;;;;;;10.80;5.97;;;16.50;99.90;;;;;;10353431;28;20577;-63
2022/10/30 10:17:45;;;;;;;11.77;6.05;;;16.50;99.90;;;;;;10342645;28;20032;-63
2022/10/30 10:22:49;;;;;;;13.70;6.68;;;16.50;99.90;;;;;;10341642;28;20401;-63
2022/10/30 10:28:04;;;;;;;14.98;8.15;;;16.50;99.90;;;;;;10344181;28;20122;-66
2022/10/30 10:33:14;;;;;;;15.27;7.72;;;16.60;99.90;;;;;;10368595;28;20523;-64
2022/10/30 10:38:37;;;;;;;14.35;7.75;;;16.70;99.90;;;;;;10369027;28;20532;-63
2022/10/30 10:43:49;;;;;;;14.57;7.65;;;16.70;99.90;;;;;;10356244;28;20096;-64
2022/10/30 10:48:50;;;;;;;14.98;7.18;;;16.70;99.90;;;;;;10354844;28;20408;-63
2022/10/30 10:53:56;;;;;;;12.90;6.72;;;16.70;99.90;;;;;;10356549;28;20435;-63
2022/10/30 10:59:02;;;;;;;12.38;6.40;;;16.80;99.90;;;;;;10359634;28;20481;-64
2022/10/30 11:04:20;;;;;;;14.70;7.10;;;16.80;99.90;;;;;;10374914;28;20838;-63
2022/10/30 11:09:23;;;;;;;12.82;6.50;;;16.80;99.90;;;;;;10368813;28;20460;-63
2022/10/30 11:14:27;;;;;;;13.25;7.30;;;16.80;99.90;;;;;;10378013;28;20052;-63
2022/10/30 11:19:30;;;;;;;12.73;7.20;;;16.80;99.90;;;;;;10376022;28;20139;-64
2022/10/30 11:24:33;;;;;;;14.93;7.65;;;16.90;99.90;;;;;;10377100;28;20060;-65
2022/10/30 11:29:34;;;;;;;16.40;7.43;;;17.00;99.90;;;;;;10373423;28;20139;-63
2022/10/30 11:34:36;;;;;;;11.98;7.10;;;17.00;99.90;;;;;;10371889;28;20763;-64
2022/10/30 11:39:37;;;;;;;23.33;8.20;;;17.20;99.90;;;;;;10371697;28;20045;-67
2022/10/30 11:44:49;;;;;;;13.20;6.95;;;17.10;99.90;;;;;;10368935;28;20024;-63
2022/10/30 11:49:58;;;;;;;19.30;7.70;;;17.10;99.90;;;;;;10368912;28;20666;-70
2022/10/30 11:55:10;;;;;;;17.15;7.30;;;17.10;99.90;;;;;;10357202;28;20116;-62
2022/10/30 12:00:16;;;;;;;13.25;6.90;;;17.10;99.90;;;;;;10343716;28;20111;-63
2022/10/30 12:05:36;;;;;;;14.98;7.53;;;17.10;99.90;;;;;;10346545;28;20025;-63
2022/10/30 12:10:45;;;;;;;12.57;6.28;;;17.20;99.90;;;;;;10347403;28;20054;-62
2022/10/30 12:15:47;;;;;;;;;;;17.10;99.90;;;;;;10346481;28;20346;-61
2022/10/30 12:20:54;;;;;;;11.40;5.88;;;17.10;99.90;;;;;;10368507;28;19928;-62
2022/10/30 12:25:59;;;;;;;11.82;6.45;;;17.10;99.90;;;;;;10361902;28;20148;-61
2022/10/30 12:31:12;;;;;;;13.52;5.80;;;17.20;99.90;;;;;;10363531;28;20056;-61
2022/10/30 12:36:18;;;;;;;13.60;6.70;;;17.20;99.90;;;;;;10363691;28;20032;-61
2022/10/30 12:41:30;;;;;;;15.75;6.68;;;17.20;99.90;;;;;;10360564;28;20041;-62
2022/10/30 12:46:37;;;;;;;14.23;6.15;;;16.90;99.90;;;;;;10366042;28;20029;-61
2022/10/30 12:51:48;;;;;;;11.07;6.30;;;17.30;99.90;;;;;;10361373;28;20029;-61
2022/10/30 12:56:59;;;;;;;12.57;5.88;;;17.30;99.90;;;;;;10368369;28;20832;-61
2022/10/30 13:02:19;;;;;;;13.73;5.80;;;17.40;99.90;;;;;;10361936;28;20919;-61
2022/10/30 13:07:40;;;;;;;10.25;6.07;;;17.40;99.90;;;;;;10360531;28;20464;-61
2022/10/30 13:12:44;;;;;;;13.57;6.50;;;17.40;99.90;;;;;;10366243;28;20591;-61
2022/10/30 13:17:45;;;;;;;14.77;5.70;;;17.40;99.90;;;;;;10367136;28;20020;-61
2022/10/30 13:23:05;;;;;;;11.95;5.68;;;17.40;99.90;;;;;;10362305;28;20099;-61
2022/10/30 13:28:26;;;;;;;13.98;5.28;;;17.40;99.90;;;;;;10365534;28;20096;-61
2022/10/30 13:33:36;;;;;;;12.52;6.53;;;17.40;99.90;;;;;;10364153;28;20101;-61
2022/10/30 13:38:55;;;;;;;11.93;6.30;;;17.40;99.90;;;;;;10369063;28;20163;-61
2022/10/30 13:44:02;;;;;;;12.25;5.43;;;17.40;99.90;;;;;;10369424;28;20941;-61
2022/10/30 13:49:21;;;;;;;11.18;5.78;;;17.40;99.90;;;;;;10361651;28;20195;-61
2022/10/30 13:54:28;;;;;;;10.27;6.25;;;17.40;99.90;;;;;;10365357;28;20434;-61
2022/10/30 14:00:20;;;;;;;11.35;5.43;;;17.40;99.90;;;;;;10359814;28;20137;-61
2022/10/30 14:05:35;;;;;;;12.55;5.95;;;17.40;99.90;;;;;;10328900;28;20052;-61
2022/10/30 14:10:46;;;;;;;9.68;5.40;;;17.50;99.90;;;;;;10365222;28;20374;-62
2022/10/30 14:15:51;;;;;;;11.27;6.57;;;17.50;99.90;;;;;;10360641;28;20429;-68
2022/10/30 14:20:54;;;;;;;10.40;5.28;;;17.50;99.90;;;;;;10362334;28;20056;-61
2022/10/30 14:26:01;;;;;;;11.38;5.88;;;17.60;99.90;;;;;;10362320;28;20867;-61
2022/10/30 14:31:12;;;;;;;10.70;6.00;;;17.60;99.90;;;;;;10362907;28;20037;-61
2022/10/30 14:36:45;;;;;;;11.55;6.70;;;17.60;99.90;;;;;;10369756;28;20012;-61
2022/10/30 14:42:10;;;;;;;12.45;6.00;;;17.60;99.90;;;;;;10372482;28;20049;-61
2022/10/30 14:47:11;;;;;;;10.02;6.43;;;17.50;99.90;;;;;;10367756;28;20638;-62
2022/10/30 14:52:28;;;;;;;11.48;5.93;;;17.50;99.90;;;;;;10370425;28;20418;-61
2022/10/30 14:58:06;;;;;;;14.98;6.88;;;17.50;99.90;;;;;;10371184;28;20497;-62
2022/10/30 15:03:22;;;;;;;;;;;17.40;99.90;;;;;;10370769;28;20111;-61
2022/10/30 15:08:57;;;;;;;9.45;5.70;;;17.40;99.90;;;;;;10372976;28;20332;-61
2022/10/30 15:14:01;;;;;;;9.95;6.38;;;17.30;99.90;;;;;;10367699;28;20045;-61
2022/10/30 15:19:06;;;;;;;12.73;6.63;;;17.30;99.90;;;;;;10367282;28;20082;-61
2022/10/30 15:24:15;;;;;;;12.38;6.40;;;17.30;99.90;;;;;;10369153;28;20048;-61
2022/10/30 15:29:27;;;;;;;12.48;6.75;;;17.30;99.90;;;;;;10367545;28;20047;-62
2022/10/30 15:34:30;;;;;;;9.48;6.15;;;17.30;99.90;;;;;;10366086;28;20029;-61
2022/10/30 15:39:30;;;;;;;15.13;6.40;;;17.30;99.90;;;;;;10364321;28;21125;-61
2022/10/30 15:44:35;;;;;;;12.80;6.88;;;17.30;99.90;;;;;;10368613;28;20540;-61
2022/10/30 15:49:39;;;;;;;9.27;5.35;;;17.30;99.90;;;;;;10371093;28;20037;-61
2022/10/30 15:54:43;;;;;;;9.68;6.60;;;17.20;99.90;;;;;;10367907;28;20419;-61
2022/10/30 15:59:51;;;;;;;11.43;6.35;;;17.20;99.90;;;;;;10367856;28;21365;-61
2022/10/30 16:04:52;;;;;;;8.77;5.70;;;17.20;99.90;;;;;;10378175;28;20033;-61
2022/10/30 16:10:01;;;;;;;12.93;6.43;;;17.20;99.90;;;;;;10365917;28;20896;-61
2022/10/30 16:15:08;;;;;;;14.23;6.88;;;17.20;99.90;;;;;;10367319;28;20070;-61
2022/10/30 16:20:10;;;;;;;13.07;6.68;;;17.10;99.90;;;;;;10382520;28;20126;-61
2022/10/30 16:25:14;;;;;;;10.25;6.50;;;17.10;99.90;;;;;;10360983;28;20526;-61
2022/10/30 16:30:16;;;;;;;13.13;7.40;;;17.10;99.90;;;;;;10351910;28;20336;-61
2022/10/30 16:35:20;;;;;;;11.35;6.95;;;17.10;99.90;;;;;;10374477;28;20021;-61
2022/10/30 16:40:28;;;;;;;14.13;6.10;;;17.10;99.90;;;;;;10447802;28;20033;-62
2022/10/30 16:45:32;;;;;;;12.18;6.25;;;17.10;99.90;;;;;;10440871;28;20061;-60
2022/10/30 16:50:36;;;;;;;9.95;5.95;;;17.10;99.90;;;;;;10463602;28;20052;-60
2022/10/30 16:55:37;;;;;;;9.85;5.85;;;17.00;99.90;;;;;;10451737;28;20036;-60
2022/10/30 17:00:40;;;;;;;14.05;6.93;;;17.00;99.90;;;;;;10440516;28;20365;-60
2022/10/30 17:05:42;;;;;;;15.18;6.32;;;17.00;99.90;;;;;;10423470;28;20537;-60
2022/10/30 17:11:01;;;;;;;14.27;7.50;;;17.00;99.90;;;;;;10440695;28;20040;-60
2022/10/30 17:16:21;;;;;;;17.38;8.00;;;17.00;99.90;;;;;;10453985;28;20029;-61
2022/10/30 17:21:28;;;;;;;16.65;8.60;;;17.00;99.90;;;;;;10448222;28;20048;-60
2022/10/30 17:26:35;;;;;;;17.13;8.57;;;17.00;99.90;;;;;;10453654;28;20120;-65
2022/10/30 17:31:36;;;;;;;13.47;8.00;;;17.00;99.90;;;;;;10441492;28;20021;-60
2022/10/30 17:36:37;;;;;;;14.73;8.23;;;17.00;99.90;;;;;;10452654;28;20051;-63
2022/10/30 17:41:38;;;;;;;13.77;8.82;;;17.00;99.90;;;;;;10453213;28;20091;-61
2022/10/30 17:46:39;;;;;;;13.68;8.13;;;17.00;99.90;;;;;;10452376;28;20409;-60
2022/10/30 17:51:40;;;;;;;15.13;7.80;;;16.90;99.90;;;;;;10447908;28;20036;-61
2022/10/30 17:56:41;;;;;;;17.70;9.05;;;16.90;99.90;;;;;;10445746;28;20040;-63
2022/10/30 18:01:42;;;;;;;13.85;7.78;;;16.90;99.90;;;;;;10445709;28;20389;-61
2022/10/30 18:06:42;;;;;;;14.60;8.00;;;16.90;99.90;;;;;;10444322;28;20087;-61
2022/10/30 18:11:43;;;;;;;13.95;7.85;;;16.90;99.90;;;;;;10433138;28;20127;-61
2022/10/30 18:16:44;;;;;;;14.02;6.95;;;16.90;99.90;;;;;;10438070;28;20029;-61
2022/10/30 18:21:47;;;;;;;15.55;7.50;;;16.90;99.90;;;;;;10430971;28;20429;-61
2022/10/30 18:26:47;;;;;;;16.10;7.45;;;16.90;99.90;;;;;;10430795;28;20996;-61
2022/10/30 18:31:48;;;;;;;13.70;7.95;;;16.90;99.90;;;;;;10432631;28;20672;-61
2022/10/30 18:36:49;;;;;;;15.20;7.38;;;16.90;99.90;;;;;;10431475;28;20025;-62
2022/10/30 18:41:50;;;;;;;15.63;8.75;;;16.80;99.90;;;;;;10428891;28;20561;-61
2022/10/30 18:46:50;;;;;;;14.32;7.82;;;16.80;99.90;;;;;;10432834;28;20075;-61
2022/10/30 18:51:51;;;;;;;16.95;7.75;;;16.80;99.90;;;;;;10416259;28;20028;-62
2022/10/30 18:56:52;;;;;;;16.10;7.45;;;16.80;99.90;;;;;;10446772;28;20116;-61
2022/10/30 19:01:53;;;;;;;16.05;7.72;;;16.80;99.90;;;;;;10445600;28;20555;-61
2022/10/30 19:06:53;;;;;;;12.88;7.35;;;16.80;99.90;;;;;;10435741;28;20025;-61
2022/10/30 19:11:54;;;;;;;15.50;7.30;;;16.80;99.90;;;;;;10447575;28;20374;-61
2022/10/30 19:16:55;;;;;;;15.88;7.93;;;16.80;99.90;;;;;;10452057;28;20029;-61
2022/10/30 19:21:55;;;;;;;15.02;7.85;;;16.70;99.90;;;;;;10446582;28;20041;-61
2022/10/30 19:26:56;;;;;;;14.18;7.15;;;16.70;99.90;;;;;;10435946;28;20094;-61
2022/10/30 19:31:57;;;;;;;11.90;7.20;;;16.70;99.90;;;;;;10436795;28;20025;-61
2022/10/30 19:36:57;;;;;;;14.75;6.78;;;16.70;99.90;;;;;;10445063;28;20564;-61
2022/10/30 19:41:58;;;;;;;10.82;6.60;;;16.80;99.90;;;;;;10442712;28;20041;-61
2022/10/30 19:46:59;;;;;;;19.92;7.32;;;16.70;99.90;;;;;;10436846;28;20021;-62
2022/10/30 19:51:59;;;;;;;13.00;7.53;;;16.70;99.90;;;;;;10441388;28;20371;-62
2022/10/30 19:57:00;;;;;;;15.05;7.53;;;16.70;99.90;;;;;;10430387;28;20023;-61
2022/10/30 20:02:01;;;;;;;12.63;7.45;;;16.70;99.90;;;;;;10443250;28;20122;-60
2022/10/30 20:07:01;;;;;;;12.63;6.97;;;16.70;99.90;;;;;;10433041;28;20025;-61
2022/10/30 20:12:02;;;;;;;13.90;7.10;;;16.70;99.90;;;;;;10449932;28;20024;-62
2022/10/30 20:17:03;;;;;;;13.00;6.97;;;16.70;99.90;;;;;;10444309;28;20031;-61
2022/10/30 20:22:04;;;;;;;15.63;7.15;;;16.60;99.90;;;;;;10432280;28;20071;-60
2022/10/30 20:27:05;;;;;;;10.43;6.85;;;16.60;99.90;;;;;;10436952;28;20128;-61
2022/10/30 20:32:08;;;;;;;14.55;7.75;;;16.60;99.90;;;;;;10434205;28;20056;-63
2022/10/30 20:37:09;;;;;;;12.85;6.70;;;16.60;99.90;;;;;;10445290;28;20022;-62
2022/10/30 20:42:12;;;;;;;13.07;7.00;;;16.60;99.90;;;;;;10443134;28;20428;-61
2022/10/30 20:47:12;;;;;;;10.40;6.35;;;16.60;99.90;;;;;;10447925;28;20029;-63
2022/10/30 20:52:13;;;;;;;12.93;6.82;;;16.60;99.90;;;;;;10443184;28;20033;-62
2022/10/30 20:57:14;;;;;;;11.65;6.80;;;16.50;99.90;;;;;;10443294;28;20592;-61
2022/10/30 21:02:14;;;;;;;12.90;6.80;;;16.50;99.90;;;;;;10443026;28;20142;-62
2022/10/30 21:07:15;;;;;;;14.48;6.93;;;16.50;99.90;;;;;;10449382;28;20128;-62
2022/10/30 21:12:17;;;;;;;13.73;6.28;;;16.50;99.90;;;;;;10440711;28;20037;-61
2022/10/30 21:17:18;;;;;;;14.63;7.35;;;16.50;99.90;;;;;;10464955;28;20101;-61
2022/10/30 21:22:19;;;;;;;12.82;7.15;;;16.40;99.90;;;;;;10431845;28;20089;-61
2022/10/30 21:27:19;;;;;;;12.68;5.90;;;16.40;99.90;;;;;;10433337;28;20053;-61
2022/10/30 21:32:20;;;;;;;11.63;6.00;;;16.40;99.90;;;;;;10427729;28;20037;-61
2022/10/30 21:37:21;;;;;;;11.10;6.10;;;16.40;99.90;;;;;;10417522;28;20021;-62
2022/10/30 21:42:22;;;;;;;12.45;6.32;;;16.40;99.90;;;;;;10426205;28;20144;-62
2022/10/30 21:47:23;;;;;;;11.27;6.07;;;16.40;99.90;;;;;;10438185;28;20017;-61
2022/10/30 21:52:23;;;;;;;14.55;7.15;;;16.40;99.90;;;;;;10425067;28;20083;-61
2022/10/30 21:57:24;;;;;;;11.07;5.57;;;16.30;99.90;;;;;;10443277;28;20103;-61
2022/10/30 22:02:25;;;;;;;10.70;5.78;;;16.30;99.90;;;;;;10449241;28;20041;-66
2022/10/30 22:07:25;;;;;;;11.25;5.65;;;16.30;99.90;;;;;;10463758;28;20067;-62
2022/10/30 22:12:26;;;;;;;10.13;5.55;;;16.30;99.90;;;;;;10460223;28;20029;-61
2022/10/30 22:17:27;;;;;;;9.77;5.43;;;16.30;99.90;;;;;;10447150;28;20017;-61
2022/10/30 22:22:28;;;;;;;9.98;5.65;;;16.20;99.90;;;;;;10454675;28;20044;-63
2022/10/30 22:27:29;;;;;;;9.75;5.40;;;16.20;99.90;;;;;;10447410;28;20068;-61
2022/10/30 22:32:29;;;;;;;10.38;5.50;;;16.20;99.90;;;;;;10448042;28;20055;-62
2022/10/30 22:37:31;;;;;;;12.70;5.72;;;16.20;99.90;;;;;;10457717;28;20385;-61
2022/10/30 22:42:34;;;;;;;8.30;4.38;;;16.20;99.90;;;;;;10456846;28;20045;-67
2022/10/30 22:47:35;;;;;;;12.43;5.55;;;16.20;99.90;;;;;;10450990;28;20036;-60
2022/10/30 22:52:35;;;;;;;9.43;4.88;;;16.10;99.90;;;;;;10459840;28;20036;-60
2022/10/30 22:57:36;;;;;;;13.18;5.18;;;16.10;99.90;;;;;;10449861;28;20104;-61
2022/10/30 23:02:37;;;;;;;9.43;4.75;;;16.10;99.90;;;;;;10450266;28;20037;-63
2022/10/30 23:07:37;;;;;;;9.20;4.90;;;16.10;99.90;;;;;;10455832;28;20332;-61
2022/10/30 23:12:38;;;;;;;10.10;4.75;;;16.10;99.90;;;;;;10460708;28;20025;-61
2022/10/30 23:17:39;;;;;;;12.30;4.82;;;16.10;99.90;;;;;;10459261;28;20116;-61
2022/10/30 23:22:40;;;;;;;8.07;4.50;;;16.00;99.90;;;;;;10458875;28;20055;-61
2022/10/30 23:27:40;;;;;;;9.35;5.25;;;16.00;99.90;;;;;;10415414;28;20042;-61
2022/10/30 23:32:41;;;;;;;9.82;4.85;;;16.00;99.90;;;;;;10417681;28;20041;-64
2022/10/30 23:37:42;;;;;;;6.75;4.25;;;16.00;99.90;;;;;;10418911;28;20075;-60
2022/10/30 23:42:42;;;;;;;8.48;4.55;;;15.90;99.90;;;;;;10419244;28;21963;-61
2022/10/30 23:47:43;;;;;;;7.63;4.40;;;15.90;99.90;;;;;;10416479;28;20033;-65
2022/10/30 23:52:44;;;;;;;9.23;4.63;;;15.90;99.90;;;;;;10415321;28;20326;-61
2022/10/30 23:57:47;;;;;;;8.70;5.10;;;15.90;99.90;;;;;;10412050;28;20517;-60
